createdAt,value
2017-09-16T07:16:07.794Z,5212
2017-09-16T07:17:09.197Z,5256
2017-09-16T07:18:30.737Z,5296
2017-09-16T07:19:32.138Z,5312
2017-09-16T07:20:53.676Z,5356
2017-09-16T07:21:55.083Z,5356
2017-09-16T07:23:16.645Z,5348
2017-09-16T07:24:18.059Z,5368
2017-09-16T07:25:39.568Z,5292
2017-09-16T07:26:40.975Z,5180
2017-09-16T07:28:02.569Z,5084
2017-09-16T07:29:03.981Z,5040
2017-09-16T07:30:25.656Z,4988
2017-09-16T07:31:27.073Z,5024
2017-09-16T07:32:48.670Z,5152
2017-09-16T07:33:50.077Z,5420
2017-09-16T07:35:11.584Z,5960
2017-09-16T07:36:13.049Z,6220
2017-09-16T07:37:34.572Z,6536
2017-09-16T07:38:35.980Z,6916
2017-09-16T07:39:57.488Z,7300
2017-09-16T07:40:58.896Z,7388
2017-09-16T07:42:20.456Z,7328
2017-09-16T07:43:21.863Z,7244
2017-09-16T07:44:43.390Z,6676
2017-09-16T07:45:44.797Z,6376
2017-09-16T07:47:06.349Z,6184
2017-09-16T07:48:07.757Z,6112
2017-09-16T07:49:29.315Z,5944
2017-09-16T07:50:30.724Z,5884
2017-09-16T07:51:52.240Z,5556
2017-09-16T07:52:53.649Z,5132
2017-09-16T07:54:15.211Z,4628
2017-09-16T07:55:16.621Z,4264
2017-09-16T07:56:38.143Z,3948
2017-09-16T07:57:39.550Z,3844
2017-09-16T07:59:01.113Z,3744
2017-09-16T08:00:02.526Z,3656
2017-09-16T08:01:24.174Z,3600
2017-09-16T08:02:25.582Z,3548
2017-09-16T08:03:47.254Z,3572
2017-09-16T08:04:48.661Z,3572
2017-09-16T08:06:10.246Z,3484
2017-09-16T08:07:11.654Z,3500
2017-09-16T08:08:33.232Z,3484
2017-09-16T08:09:34.638Z,3600
2017-09-16T08:10:56.149Z,3592
2017-09-16T08:11:57.556Z,3436
2017-09-16T08:13:19.117Z,3392
2017-09-16T08:14:20.527Z,3348
2017-09-16T08:15:42.046Z,3336
2017-09-16T08:16:43.452Z,3316
2017-09-16T08:18:05.023Z,3380
2017-09-16T08:19:06.431Z,3328
2017-09-16T08:20:27.946Z,3244
2017-09-16T08:21:29.353Z,3344
2017-09-16T08:22:50.914Z,3256
2017-09-16T08:23:52.324Z,3280
2017-09-16T08:25:13.845Z,3732
2017-09-16T08:26:15.250Z,3424
2017-09-16T08:27:36.954Z,3756
2017-09-16T08:28:38.362Z,3480
2017-09-16T08:30:00.013Z,3328
2017-09-16T08:31:01.420Z,3556
2017-09-16T08:32:22.910Z,3404
2017-09-16T08:33:24.318Z,3300
2017-09-16T08:34:46.379Z,3400
2017-09-16T08:35:47.784Z,3460
2017-09-16T08:37:09.328Z,3476
2017-09-16T08:38:10.737Z,3424
2017-09-16T08:39:32.261Z,3304
2017-09-16T08:40:33.668Z,3204
2017-09-16T08:41:55.205Z,3216
2017-09-16T08:42:56.614Z,3188
2017-09-16T08:44:18.127Z,3168
2017-09-16T08:45:19.539Z,3176
2017-09-16T08:46:41.070Z,3200
2017-09-16T08:47:42.495Z,3216
2017-09-16T08:49:05.807Z,2868
2017-09-16T08:50:07.260Z,3192
2017-09-16T08:51:28.833Z,3108
2017-09-16T08:52:30.248Z,3092
2017-09-16T08:53:51.917Z,3040
2017-09-16T08:54:53.330Z,3208
2017-09-16T08:56:14.910Z,3428
2017-09-16T08:57:16.312Z,3312
2017-09-16T08:58:37.911Z,3372
2017-09-16T08:59:39.334Z,3252
2017-09-16T09:01:00.914Z,3340
2017-09-16T09:02:02.530Z,3740
2017-09-16T09:03:24.130Z,3668
2017-09-16T09:04:25.538Z,4032
2017-09-16T09:05:47.119Z,4380
2017-09-16T09:06:48.526Z,4160
2017-09-16T09:08:10.124Z,3608
2017-09-16T09:09:11.534Z,3408
2017-09-16T09:10:33.113Z,3476
2017-09-16T09:11:34.519Z,3828
2017-09-16T09:12:56.591Z,4248
2017-09-16T09:13:57.999Z,4684
2017-09-16T09:15:19.585Z,4540
2017-09-16T09:16:21.072Z,4684
2017-09-16T09:17:42.723Z,5092
2017-09-16T09:18:44.139Z,4668
2017-09-16T09:20:05.757Z,4696
2017-09-16T09:21:07.168Z,4368
2017-09-16T09:22:29.308Z,4168
2017-09-16T09:23:30.768Z,4024
2017-09-16T09:24:52.306Z,5936
2017-09-16T09:25:53.717Z,5768
2017-09-16T09:27:16.070Z,5640
2017-09-16T09:28:17.895Z,5980
2017-09-16T09:29:39.430Z,6892
2017-09-16T09:30:40.858Z,7328
2017-09-16T09:32:03.387Z,7004
2017-09-16T09:33:04.802Z,8092
2017-09-16T09:34:26.356Z,9728
2017-09-16T09:35:27.770Z,7592
2017-09-16T09:36:49.446Z,7616
2017-09-16T09:37:50.854Z,8400
2017-09-16T09:39:12.453Z,7252
2017-09-16T09:40:13.963Z,8600
2017-09-16T09:41:35.593Z,9028
2017-09-16T09:42:37.002Z,9352
2017-09-16T09:44:00.096Z,9696
2017-09-16T09:45:01.508Z,11012
2017-09-16T09:46:23.129Z,9964
2017-09-16T09:47:24.539Z,9404
2017-09-16T09:48:46.099Z,6616
2017-09-16T09:49:47.510Z,7576
2017-09-16T09:51:09.198Z,8224
2017-09-16T09:52:10.611Z,8540
2017-09-16T09:53:32.712Z,10068
2017-09-16T09:54:34.120Z,8852
2017-09-16T09:55:55.810Z,10928
2017-09-16T09:56:57.224Z,11592
2017-09-16T09:58:18.804Z,9216
2017-09-16T09:59:20.216Z,8404
2017-09-16T10:00:41.764Z,8576
2017-09-16T10:01:43.175Z,9304
2017-09-16T10:03:04.791Z,9104
2017-09-16T10:04:06.203Z,7652
2017-09-16T10:05:27.767Z,8824
2017-09-16T10:06:29.180Z,10484
2017-09-16T10:07:50.806Z,8332
2017-09-16T10:08:52.216Z,7596
2017-09-16T10:10:13.772Z,7252
2017-09-16T10:11:15.183Z,6608
2017-09-16T10:12:36.800Z,4964
2017-09-16T10:13:38.218Z,4748
2017-09-16T10:15:02.399Z,5152
2017-09-16T10:16:03.865Z,5720
2017-09-16T10:17:25.549Z,6204
2017-09-16T10:18:26.958Z,6628
2017-09-16T10:19:48.537Z,6788
2017-09-16T10:20:49.946Z,7616
2017-09-16T10:22:11.468Z,9832
2017-09-16T10:23:12.909Z,9808
2017-09-16T10:24:34.628Z,9172
2017-09-16T10:25:36.038Z,8824
2017-09-16T10:26:57.618Z,9204
2017-09-16T10:27:59.028Z,8668
2017-09-16T10:29:20.688Z,7988
2017-09-16T10:30:22.096Z,7652
2017-09-16T10:31:43.677Z,8340
2017-09-16T10:32:45.086Z,8320
2017-09-16T10:34:06.689Z,8836
2017-09-16T10:35:08.102Z,8512
2017-09-16T10:36:29.684Z,8196
2017-09-16T10:37:31.188Z,9048
2017-09-16T10:38:52.909Z,9496
2017-09-16T10:39:54.318Z,9424
2017-09-16T10:41:15.892Z,8068
2017-09-16T10:42:17.349Z,7768
2017-09-16T10:43:39.035Z,6868
2017-09-16T10:44:40.443Z,6124
2017-09-16T10:46:02.045Z,6432
2017-09-16T10:47:03.457Z,6496
2017-09-16T10:48:25.062Z,6528
2017-09-16T10:49:26.479Z,7364
2017-09-16T10:50:48.057Z,8128
2017-09-16T10:51:49.483Z,8192
2017-09-16T10:53:11.087Z,7556
2017-09-16T10:54:12.498Z,7644
2017-09-16T10:55:34.210Z,7484
2017-09-16T10:56:35.617Z,7052
2017-09-16T10:57:58.699Z,6212
2017-09-16T10:59:00.111Z,5508
2017-09-16T11:00:21.704Z,4788
2017-09-16T11:01:23.171Z,4404
2017-09-16T11:02:44.711Z,4252
2017-09-16T11:03:46.121Z,4692
2017-09-16T11:05:07.726Z,5352
2017-09-16T11:06:09.133Z,5460
2017-09-16T11:07:30.714Z,5516
2017-09-16T11:08:32.128Z,5624
2017-09-16T11:09:53.726Z,5532
2017-09-16T11:10:55.143Z,5900
2017-09-16T11:12:16.733Z,7040
2017-09-16T11:13:18.141Z,7080
2017-09-16T11:14:39.797Z,8624
2017-09-16T11:15:41.247Z,8368
2017-09-16T11:17:02.829Z,7860
2017-09-16T11:18:04.243Z,8248
2017-09-16T11:19:25.844Z,8804
2017-09-16T11:20:27.254Z,9896
2017-09-16T11:21:48.846Z,9360
2017-09-16T11:22:50.261Z,8628
2017-09-16T11:24:11.933Z,6904
2017-09-16T11:25:13.348Z,5528
2017-09-16T11:26:34.950Z,4448
2017-09-16T11:27:36.362Z,4020
2017-09-16T11:28:57.934Z,3700
2017-09-16T11:29:59.343Z,3612
2017-09-16T11:31:21.004Z,4124
2017-09-16T11:32:22.414Z,4352
2017-09-16T11:33:43.996Z,4180
2017-09-16T11:34:45.450Z,4176
2017-09-16T11:36:07.067Z,4168
2017-09-16T11:37:08.477Z,4128
2017-09-16T11:38:30.130Z,4088
2017-09-16T11:39:31.543Z,4020
2017-09-16T11:40:53.204Z,4472
2017-09-16T11:41:54.621Z,4852
2017-09-16T11:43:16.204Z,5256
2017-09-16T11:44:17.649Z,5204
2017-09-16T11:45:39.313Z,5740
2017-09-16T11:46:40.727Z,6372
2017-09-16T11:48:02.318Z,6840
2017-09-16T11:49:03.727Z,7064
2017-09-16T11:50:25.351Z,7172
2017-09-16T11:51:26.764Z,6900
2017-09-16T11:52:48.395Z,6460
2017-09-16T11:53:49.806Z,6432
2017-09-16T11:55:11.359Z,6884
2017-09-16T11:56:12.771Z,6632
2017-09-16T11:57:34.292Z,6080
2017-09-16T11:58:35.703Z,5704
2017-09-16T11:59:57.238Z,5316
2017-09-16T12:00:58.693Z,6056
2017-09-16T12:02:20.275Z,7032
2017-09-16T12:03:21.719Z,6280
2017-09-16T12:04:43.249Z,5072
2017-09-16T12:05:44.658Z,4680
2017-09-16T12:07:06.195Z,4880
2017-09-16T12:08:07.608Z,5088
2017-09-16T12:09:29.147Z,5044
2017-09-16T12:10:30.557Z,5008
2017-09-16T12:11:52.118Z,4420
2017-09-16T12:12:53.530Z,4364
2017-09-16T12:14:15.053Z,4096
2017-09-16T12:15:16.463Z,3960
2017-09-16T12:16:38.022Z,3760
2017-09-16T12:17:39.435Z,3652
2017-09-16T12:19:00.951Z,3852
2017-09-16T12:20:02.363Z,4216
2017-09-16T12:21:23.894Z,4292
2017-09-16T12:22:25.305Z,4080
2017-09-16T12:23:46.852Z,3780
2017-09-16T12:24:48.262Z,3752
2017-09-16T12:26:09.822Z,3820
2017-09-16T12:27:11.232Z,3792
2017-09-16T12:28:32.755Z,3736
2017-09-16T12:29:34.165Z,3716
2017-09-16T12:30:55.725Z,4108
2017-09-16T12:31:57.134Z,4064
2017-09-16T12:33:18.655Z,3588
2017-09-16T12:34:20.067Z,3360
2017-09-16T12:35:41.624Z,3252
2017-09-16T12:36:43.036Z,3280
2017-09-16T12:38:04.558Z,3216
2017-09-16T12:39:05.969Z,3216
2017-09-16T12:40:27.527Z,3268
2017-09-16T12:41:28.943Z,3504
2017-09-16T12:42:50.458Z,3856
2017-09-16T12:43:51.868Z,3852
2017-09-16T12:45:13.428Z,4008
2017-09-16T12:46:14.837Z,4060
2017-09-16T12:47:36.359Z,4016
2017-09-16T12:48:37.773Z,3988
2017-09-16T12:49:59.310Z,3828
2017-09-16T12:51:00.719Z,3660
2017-09-16T12:52:22.287Z,3672
2017-09-16T12:53:23.691Z,4220
2017-09-16T12:54:45.213Z,4496
2017-09-16T12:55:46.623Z,5012
2017-09-16T12:57:08.183Z,6140
2017-09-16T12:58:09.591Z,6088
2017-09-16T12:59:31.115Z,5228
2017-09-16T13:00:32.526Z,4644
2017-09-16T13:01:54.085Z,4236
2017-09-16T13:02:55.495Z,4124
2017-09-16T13:04:17.014Z,3972
2017-09-16T13:05:18.426Z,3852
2017-09-16T13:06:39.983Z,3764
2017-09-16T13:07:41.395Z,3716
2017-09-16T13:09:02.915Z,3700
2017-09-16T13:10:04.329Z,3720
2017-09-16T13:11:25.885Z,3684
2017-09-16T13:12:27.298Z,3780
2017-09-16T13:13:48.818Z,3864
2017-09-16T13:14:50.231Z,3860
2017-09-16T13:16:11.787Z,3868
2017-09-16T13:17:13.192Z,3840
2017-09-16T13:18:34.801Z,3872
2017-09-16T13:19:36.210Z,3864
2017-09-16T13:20:57.793Z,4180
2017-09-16T13:21:59.202Z,4232
2017-09-16T13:23:20.725Z,4840
2017-09-16T13:24:22.142Z,5064
2017-09-16T13:25:43.695Z,5556
2017-09-16T13:26:45.106Z,5728
2017-09-16T13:28:06.626Z,6100
2017-09-16T13:29:08.036Z,5796
2017-09-16T13:30:29.595Z,5700
2017-09-16T13:31:31.005Z,5960
2017-09-16T13:32:52.555Z,6684
2017-09-16T13:33:53.945Z,6240
2017-09-16T13:35:15.478Z,5444
2017-09-16T13:36:16.888Z,5360
2017-09-16T13:37:38.439Z,5432
2017-09-16T13:38:39.858Z,5736
2017-09-16T13:40:01.372Z,6148
2017-09-16T13:41:02.784Z,5940
2017-09-16T13:42:24.349Z,5040
2017-09-16T13:43:25.763Z,4772
2017-09-16T13:44:47.268Z,4928
2017-09-16T13:45:48.684Z,5148
2017-09-16T13:47:10.243Z,4932
2017-09-16T13:48:11.654Z,4732
2017-09-16T13:49:33.168Z,4540
2017-09-16T13:50:34.582Z,4140
2017-09-16T13:51:56.136Z,4068
2017-09-16T13:52:57.549Z,4472
2017-09-16T13:54:19.066Z,5740
2017-09-16T13:55:20.478Z,7228
2017-09-16T13:56:42.053Z,8560
2017-09-16T13:57:43.462Z,8712
2017-09-16T13:59:04.986Z,7408
2017-09-16T14:00:06.398Z,6616
2017-09-16T14:01:27.932Z,5764
2017-09-16T14:02:29.344Z,5520
2017-09-16T14:03:50.886Z,5848
2017-09-16T14:04:52.297Z,6300
2017-09-16T14:06:13.831Z,7004
2017-09-16T14:07:15.241Z,7284
2017-09-16T14:08:36.762Z,7860
2017-09-16T14:09:38.173Z,8012
2017-09-16T14:10:59.731Z,8020
2017-09-16T14:12:01.141Z,7788
2017-09-16T14:13:23.203Z,7228
2017-09-16T14:14:24.613Z,6708
2017-09-16T14:15:46.154Z,5984
2017-09-16T14:16:47.563Z,5800
2017-09-16T14:18:09.093Z,5504
2017-09-16T14:19:10.505Z,5328
2017-09-16T14:20:32.054Z,5200
2017-09-16T14:21:33.465Z,5152
2017-09-16T14:22:55.023Z,5004
2017-09-16T14:23:56.436Z,5016
2017-09-16T14:25:17.957Z,4868
2017-09-16T14:26:19.371Z,4616
2017-09-16T14:27:40.926Z,4808
2017-09-16T14:28:42.334Z,4912
2017-09-16T14:30:03.857Z,4928
2017-09-16T14:31:05.276Z,4932
2017-09-16T14:32:26.833Z,4656
2017-09-16T14:33:28.245Z,4448
2017-09-16T14:34:49.764Z,4084
2017-09-16T14:35:51.171Z,3892
2017-09-16T14:37:15.700Z,3560
